Time;durP1;ratioP1;P1;durP2;ratioP2;P2;SDS_P1;SDS_P2;PMS_P1;PMS_P2;Temp;Humidity;BMP_temperature;BMP_pressure;BME280_temperature;BME280_humidity;BME280_pressure;Samples;Min_cycle;Max_cycle;Signal;HPM_P1;HPM_P2
2022/11/27 00:02:15;;;;;;;52.75;32.30;;;2.80;60.40;;;;;;7384918;19;20018;-72
2022/11/27 00:04:45;;;;;;;59.22;33.47;;;2.80;60.40;;;;;;7363368;19;20014;-71
2022/11/27 00:07:15;;;;;;;61.67;33.38;;;2.80;60.40;;;;;;7363403;19;20014;-72
2022/11/27 00:09:45;;;;;;;62.05;32.15;;;2.70;60.30;;;;;;7362567;19;20018;-72
2022/11/27 00:12:15;;;;;;;54.28;31.05;;;2.70;60.30;;;;;;7363565;19;20014;-72
2022/11/27 00:14:45;;;;;;;50.03;30.20;;;2.60;60.10;;;;;;7363589;19;20015;-73
2022/11/27 00:17:17;;;;;;;48.88;29.38;;;2.60;60.10;;;;;;7384706;19;20348;-72
2022/11/27 00:19:47;;;;;;;52.38;29.50;;;2.60;60.10;;;;;;7361142;19;20021;-72
2022/11/27 00:22:16;;;;;;;44.42;28.40;;;2.60;60.20;;;;;;7363192;19;20017;-72
2022/11/27 00:24:46;;;;;;;42.63;27.77;;;2.50;60.10;;;;;;7363448;19;20538;-71
2022/11/27 00:27:16;;;;;;;47.05;27.95;;;2.50;60.10;;;;;;7363033;19;20585;-72
2022/11/27 00:29:46;;;;;;;39.78;26.63;;;2.50;60.20;;;;;;7359026;19;20086;-73
2022/11/27 00:32:18;;;;;;;41.47;26.15;;;2.50;60.20;;;;;;7384090;19;20014;-73
2022/11/27 00:34:48;;;;;;;38.97;25.88;;;2.50;60.60;;;;;;7362436;19;20081;-72
2022/11/27 00:37:18;;;;;;;40.47;24.55;;;2.60;60.70;;;;;;7361093;19;20107;-71
2022/11/27 00:39:49;;;;;;;39.45;25.45;;;2.70;61.00;;;;;;7363465;19;20466;-72
2022/11/27 00:42:19;;;;;;;41.88;26.05;;;2.60;60.90;;;;;;7364926;19;20014;-72
2022/11/27 00:44:49;;;;;;;42.55;26.08;;;2.70;61.00;;;;;;7362118;19;20007;-72
2022/11/27 00:47:21;;;;;;;43.63;26.02;;;2.70;61.10;;;;;;7383538;19;20018;-73
2022/11/27 00:49:51;;;;;;;39.75;27.00;;;2.70;61.10;;;;;;7363734;19;20007;-72
2022/11/27 00:52:21;;;;;;;38.60;25.70;;;2.80;61.30;;;;;;7362345;19;20010;-72
2022/11/27 00:54:51;;;;;;;42.15;25.17;;;2.80;61.40;;;;;;7361697;19;20090;-73
2022/11/27 00:57:21;;;;;;;45.13;24.98;;;2.70;61.30;;;;;;7361106;19;20093;-71
2022/11/27 00:59:51;;;;;;;41.63;25.48;;;2.70;61.30;;;;;;7359479;19;20111;-73
2022/11/27 01:02:24;;;;;;;37.38;23.98;;;2.70;61.30;;;;;;7383215;19;20006;-72
2022/11/27 01:04:54;;;;;;;40.85;25.75;;;2.80;61.30;;;;;;7361518;19;20018;-73
2022/11/27 01:07:24;;;;;;;39.75;23.88;;;2.70;61.20;;;;;;7360895;19;20018;-71
2022/11/27 01:09:54;;;;;;;40.15;24.73;;;2.70;61.20;;;;;;7360488;19;20078;-72
2022/11/27 01:12:24;;;;;;;36.55;23.52;;;2.70;61.20;;;;;;7362379;19;20065;-72
2022/11/27 01:14:53;;;;;;;36.53;23.70;;;2.70;61.10;;;;;;7361137;19;20082;-72
2022/11/27 01:17:26;;;;;;;37.63;24.63;;;2.60;60.80;;;;;;7382670;19;20077;-72
2022/11/27 01:19:56;;;;;;;41.38;23.98;;;2.60;60.60;;;;;;7359650;19;20033;-72
2022/11/27 01:22:25;;;;;;;37.95;24.55;;;2.60;60.60;;;;;;7361099;19;20011;-72
2022/11/27 01:24:55;;;;;;;36.30;24.25;;;2.60;60.40;;;;;;7361743;19;20022;-72
2022/11/27 01:27:25;;;;;;;36.72;24.15;;;2.60;60.30;;;;;;7361639;19;20530;-73
2022/11/27 01:29:55;;;;;;;37.40;25.17;;;2.50;60.10;;;;;;7359210;19;20018;-72
2022/11/27 01:32:27;;;;;;;44.53;24.80;;;2.50;60.10;;;;;;7382410;19;20034;-72
2022/11/27 01:34:57;;;;;;;39.80;25.67;;;2.50;60.00;;;;;;7360016;19;20019;-72
2022/11/27 01:37:27;;;;;;;39.95;23.52;;;2.50;60.00;;;;;;7363647;19;20014;-71
2022/11/27 01:39:57;;;;;;;41.60;24.20;;;2.40;59.90;;;;;;7360512;19;20014;-72
2022/11/27 01:42:26;;;;;;;35.88;24.55;;;2.40;59.80;;;;;;7364661;19;20010;-72
2022/11/27 01:44:57;;;;;;;36.08;24.20;;;2.30;59.40;;;;;;7368366;19;20014;-73
2022/11/27 01:47:38;;;;;;;32.25;22.23;;;2.30;59.40;;;;;;7389825;19;20077;-72
2022/11/27 01:50:17;;;;;;;36.33;24.17;;;2.30;59.40;;;;;;7368551;19;20035;-72
2022/11/27 01:52:52;;;;;;;32.05;22.92;;;2.30;59.10;;;;;;7367709;19;20019;-72
2022/11/27 01:55:27;;;;;;;39.35;23.88;;;2.30;59.30;;;;;;7396671;19;20015;-72
2022/11/27 01:58:01;;;;;;;35.38;23.70;;;2.30;59.20;;;;;;7367729;19;20129;-73
2022/11/27 02:00:31;;;;;;;36.10;23.52;;;2.30;59.10;;;;;;7367824;19;20027;-73
2022/11/27 02:03:04;;;;;;;35.65;23.90;;;2.20;58.70;;;;;;7368021;19;20573;-73
2022/11/27 02:05:34;;;;;;;35.88;23.33;;;2.10;58.30;;;;;;7389170;19;20034;-73
2022/11/27 02:08:09;;;;;;;42.35;25.45;;;2.00;58.30;;;;;;7366981;19;20015;-73
2022/11/27 02:10:42;;;;;;;;;;;2.00;58.30;;;;;;7365652;19;20016;-73
2022/11/27 02:13:18;;;;;;;41.97;24.80;;;2.10;59.10;;;;;;7367546;19;19925;-73
2022/11/27 02:15:54;;;;;;;45.85;25.15;;;2.10;58.60;;;;;;7367164;19;20417;-74
2022/11/27 02:18:36;;;;;;;46.15;26.27;;;2.10;58.50;;;;;;7366212;19;20014;-73
2022/11/27 02:21:12;;;;;;;41.55;25.70;;;2.10;58.50;;;;;;7367633;19;20506;-72
2022/11/27 02:23:58;;;;;;;36.28;24.02;;;2.10;58.50;;;;;;7367258;19;20354;-73
2022/11/27 02:27:07;;;;;;;36.80;24.70;;;2.20;58.70;;;;;;7389404;19;20015;-72
2022/11/27 02:29:42;;;;;;;37.30;25.23;;;2.10;58.50;;;;;;7261996;19;2004397;-72
2022/11/27 02:32:17;;;;;;;39.05;24.80;;;2.10;58.60;;;;;;7390539;19;20038;-73
2022/11/27 02:34:51;;;;;;;43.42;26.13;;;2.10;58.40;;;;;;7369473;19;20012;-72
2022/11/27 02:37:25;;;;;;;43.17;26.52;;;2.10;58.40;;;;;;7366099;19;20010;-72
2022/11/27 02:40:03;;;;;;;42.58;24.77;;;2.00;58.30;;;;;;7365334;19;20011;-72
2022/11/27 02:42:37;;;;;;;37.42;25.52;;;2.00;58.20;;;;;;7366625;19;20011;-72
2022/11/27 02:45:13;;;;;;;41.05;26.67;;;2.00;58.00;;;;;;7366916;19;20089;-72
2022/11/27 02:47:47;;;;;;;41.47;27.02;;;2.00;58.10;;;;;;7366082;19;20033;-73
2022/11/27 02:50:21;;;;;;;37.70;24.88;;;1.90;57.80;;;;;;7389422;19;20455;-73
2022/11/27 02:52:53;;;;;;;35.53;24.23;;;1.80;57.80;;;;;;7364792;19;20016;-71
2022/11/27 02:55:28;;;;;;;42.28;25.52;;;1.80;57.70;;;;;;7366263;19;20082;-71
2022/11/27 02:58:00;;;;;;;38.65;24.30;;;1.80;57.80;;;;;;7367211;19;20021;-72
2022/11/27 03:00:34;;;;;;;37.72;23.92;;;1.70;57.50;;;;;;7365555;19;20018;-71
2022/11/27 03:03:08;;;;;;;37.90;24.27;;;1.70;57.60;;;;;;7366319;19;20010;-72
2022/11/27 03:05:42;;;;;;;38.08;24.70;;;1.80;57.70;;;;;;7366290;19;20250;-72
2022/11/27 03:08:19;;;;;;;35.72;25.23;;;1.70;57.40;;;;;;7386754;19;20015;-71
2022/11/27 03:10:54;;;;;;;41.17;24.63;;;1.70;57.50;;;;;;7363760;19;20026;-73
2022/11/27 03:13:23;;;;;;;43.95;26.17;;;1.70;57.50;;;;;;7365292;19;20416;-72
2022/11/27 03:16:04;;;;;;;40.63;23.70;;;1.60;57.50;;;;;;7365637;19;20017;-73
2022/11/27 03:18:42;;;;;;;40.17;24.05;;;1.60;57.50;;;;;;7364344;19;20014;-72
2022/11/27 03:21:28;;;;;;;39.28;24.58;;;1.50;57.20;;;;;;7365451;19;20044;-72
2022/11/27 03:23:59;;;;;;;38.05;25.33;;;1.50;57.20;;;;;;7365530;19;20041;-73
2022/11/27 03:26:29;;;;;;;41.30;25.75;;;1.50;57.20;;;;;;7386972;19;20027;-72
2022/11/27 03:29:00;;;;;;;41.20;24.20;;;1.40;57.10;;;;;;7365022;19;20465;-72
2022/11/27 03:31:33;;;;;;;40.78;24.85;;;1.40;57.10;;;;;;7366028;19;20094;-71
2022/11/27 03:34:03;;;;;;;38.55;22.27;;;1.40;57.10;;;;;;7364879;19;20010;-72
2022/11/27 03:36:33;;;;;;;34.55;23.60;;;1.40;57.20;;;;;;7365428;19;20014;-72
2022/11/27 03:39:04;;;;;;;39.70;24.15;;;1.30;57.00;;;;;;7364014;19;20561;-72
2022/11/27 03:41:43;;;;;;;38.22;24.23;;;1.30;57.10;;;;;;7386461;19;20018;-72
2022/11/27 03:44:24;;;;;;;36.92;23.73;;;1.30;57.30;;;;;;7364254;19;20017;-72
2022/11/27 03:47:07;;;;;;;34.65;22.90;;;1.30;57.20;;;;;;7364306;19;20014;-72
2022/11/27 03:49:49;;;;;;;36.47;24.80;;;1.40;57.40;;;;;;7365340;19;20701;-72
2022/11/27 03:52:28;;;;;;;37.88;23.40;;;1.30;57.20;;;;;;7363250;19;20014;-72
2022/11/27 03:55:04;;;;;;;39.97;24.05;;;1.30;57.20;;;;;;7364316;19;20111;-72
2022/11/27 03:57:39;;;;;;;35.95;23.73;;;1.30;57.30;;;;;;7363902;19;20025;-72
2022/11/27 04:00:13;;;;;;;33.55;22.98;;;1.30;57.30;;;;;;7389337;19;20086;-70
2022/11/27 04:02:47;;;;;;;38.97;24.70;;;1.30;57.20;;;;;;7392158;19;20014;-72
2022/11/27 04:05:17;;;;;;;34.90;23.42;;;1.20;57.10;;;;;;7390007;19;20470;-71
2022/11/27 04:07:47;;;;;;;41.67;24.77;;;1.20;57.20;;;;;;7392587;19;20052;-71
2022/11/27 04:10:18;;;;;;;35.05;23.88;;;1.20;57.20;;;;;;7389566;19;20018;-72
2022/11/27 04:12:47;;;;;;;38.28;23.60;;;1.20;57.20;;;;;;7392183;19;20014;-72
2022/11/27 04:15:17;;;;;;;36.55;22.63;;;1.10;57.00;;;;;;7391577;19;20453;-72
2022/11/27 04:17:50;;;;;;;36.20;24.60;;;1.10;57.10;;;;;;7391741;19;20540;-72
2022/11/27 04:20:20;;;;;;;36.05;23.05;;;1.10;57.30;;;;;;7389285;19;20038;-72
2022/11/27 04:22:49;;;;;;;39.50;24.15;;;1.10;57.30;;;;;;7391921;19;20003;-72
2022/11/27 04:25:19;;;;;;;39.17;24.80;;;1.00;57.10;;;;;;7390266;19;20015;-72
2022/11/27 04:27:49;;;;;;;38.05;22.70;;;1.00;57.00;;;;;;7391288;19;20014;-72
2022/11/27 04:30:20;;;;;;;36.53;23.33;;;0.90;57.00;;;;;;7388856;19;20477;-72
2022/11/27 04:32:52;;;;;;;37.13;23.77;;;1.00;57.10;;;;;;7389890;19;20007;-72
2022/11/27 04:35:22;;;;;;;36.40;23.08;;;0.90;57.00;;;;;;7391115;19;20017;-73
2022/11/27 04:37:52;;;;;;;34.50;24.10;;;0.90;57.00;;;;;;7391265;19;20085;-72
2022/11/27 04:40:21;;;;;;;36.92;24.17;;;0.90;57.00;;;;;;7388695;19;20003;-72
2022/11/27 04:42:52;;;;;;;40.50;23.92;;;1.00;57.20;;;;;;7390094;19;20041;-71
2022/11/27 04:45:22;;;;;;;40.28;24.38;;;1.00;57.20;;;;;;7391209;19;20007;-71
2022/11/27 04:47:54;;;;;;;40.38;24.77;;;1.10;57.40;;;;;;7391523;19;20022;-72
2022/11/27 04:50:26;;;;;;;;;;;1.10;57.40;;;;;;7393964;19;20031;-71
2022/11/27 04:52:56;;;;;;;37.10;22.65;;;1.10;57.40;;;;;;7389193;19;19925;-72
2022/11/27 04:55:26;;;;;;;36.83;23.58;;;1.00;57.20;;;;;;7390856;19;20038;-72
2022/11/27 04:57:56;;;;;;;42.28;25.48;;;1.00;57.10;;;;;;7390642;19;20014;-72
2022/11/27 05:00:26;;;;;;;38.97;24.60;;;0.90;57.00;;;;;;7387800;19;20015;-72
2022/11/27 05:02:58;;;;;;;40.65;25.63;;;0.90;57.00;;;;;;7390453;19;20014;-72
2022/11/27 05:05:28;;;;;;;38.78;25.48;;;0.90;57.10;;;;;;7388867;19;20096;-72
2022/11/27 05:07:58;;;;;;;41.72;25.73;;;0.80;56.80;;;;;;7390070;19;20010;-72
2022/11/27 05:10:28;;;;;;;41.90;25.38;;;0.80;56.90;;;;;;7389609;19;20086;-72
2022/11/27 05:12:58;;;;;;;38.40;24.88;;;0.70;56.80;;;;;;7388564;19;20537;-72
2022/11/27 05:15:28;;;;;;;39.50;24.38;;;0.70;56.70;;;;;;7387678;19;20537;-72
2022/11/27 05:18:00;;;;;;;38.22;24.77;;;0.80;56.80;;;;;;7389914;19;20018;-72
2022/11/27 05:20:30;;;;;;;41.83;24.20;;;0.80;56.80;;;;;;7389411;19;20098;-73
2022/11/27 05:23:00;;;;;;;40.60;24.02;;;0.80;56.80;;;;;;7390076;19;20015;-72
2022/11/27 05:25:30;;;;;;;37.83;22.85;;;0.80;57.00;;;;;;7390944;19;20074;-71
2022/11/27 05:28:00;;;;;;;37.95;23.98;;;0.80;57.00;;;;;;7389975;19;20093;-72
2022/11/27 05:30:30;;;;;;;35.40;22.98;;;0.80;57.00;;;;;;7388898;19;20018;-72
2022/11/27 05:33:05;;;;;;;37.08;22.83;;;0.80;57.00;;;;;;7388111;19;20010;-71
2022/11/27 05:35:35;;;;;;;39.25;22.35;;;0.80;56.90;;;;;;7389394;19;20034;-71
2022/11/27 05:38:05;;;;;;;42.20;27.02;;;0.80;57.00;;;;;;7387962;19;20017;-72
2022/11/27 05:40:35;;;;;;;37.83;22.88;;;0.80;56.90;;;;;;7388673;19;20015;-72
2022/11/27 05:43:04;;;;;;;38.65;24.45;;;0.80;56.90;;;;;;7389333;19;20090;-71
2022/11/27 05:45:34;;;;;;;37.80;24.00;;;0.80;56.90;;;;;;7389113;19;20010;-71
2022/11/27 05:48:07;;;;;;;33.78;21.95;;;0.70;56.80;;;;;;7388782;19;20015;-72
2022/11/27 05:50:37;;;;;;;38.85;24.33;;;0.70;56.70;;;;;;7388634;19;20011;-72
2022/11/27 05:53:07;;;;;;;35.70;22.98;;;0.70;56.80;;;;;;7385699;19;20031;-72
2022/11/27 05:55:37;;;;;;;35.85;22.58;;;0.60;56.70;;;;;;7389084;19;20025;-71
2022/11/27 05:58:10;;;;;;;36.53;22.20;;;0.60;56.60;;;;;;7388811;19;20025;-72
2022/11/27 06:00:40;;;;;;;35.53;21.30;;;0.60;56.60;;;;;;7386807;19;20023;-72
2022/11/27 06:03:12;;;;;;;38.35;22.48;;;0.60;56.60;;;;;;7388907;19;20011;-72
2022/11/27 06:05:43;;;;;;;35.33;21.85;;;0.60;56.50;;;;;;7388177;19;20419;-72
2022/11/27 06:08:12;;;;;;;33.03;21.55;;;0.60;56.70;;;;;;7388565;19;20009;-72
2022/11/27 06:10:42;;;;;;;31.65;21.38;;;0.60;56.60;;;;;;7389066;19;20014;-72
2022/11/27 06:13:12;;;;;;;32.50;21.67;;;0.60;56.60;;;;;;7387023;19;20010;-72
2022/11/27 06:15:42;;;;;;;34.60;21.88;;;0.50;56.40;;;;;;7388310;19;20010;-71
2022/11/27 06:18:15;;;;;;;32.42;21.55;;;0.50;56.40;;;;;;7387699;19;20014;-71
2022/11/27 06:20:47;;;;;;;32.22;21.55;;;0.50;56.40;;;;;;7388047;19;20382;-72
2022/11/27 06:23:21;;;;;;;32.75;21.60;;;0.60;56.60;;;;;;7388120;19;20035;-71
2022/11/27 06:25:51;;;;;;;35.28;20.63;;;0.50;56.50;;;;;;7387929;19;20014;-71
2022/11/27 06:28:21;;;;;;;36.25;21.10;;;0.50;56.40;;;;;;7390339;19;20018;-71
2022/11/27 06:30:51;;;;;;;33.08;21.65;;;0.60;56.60;;;;;;7395007;19;20501;-72
2022/11/27 06:33:23;;;;;;;32.17;20.58;;;0.60;56.60;;;;;;7393226;19;20013;-72
2022/11/27 06:35:56;;;;;;;30.73;19.88;;;0.50;56.40;;;;;;7394973;19;20010;-71
2022/11/27 06:38:26;;;;;;;30.48;20.05;;;0.50;56.40;;;;;;7392353;19;20378;-71
2022/11/27 06:40:56;;;;;;;30.20;20.33;;;0.50;56.40;;;;;;7394693;19;20366;-71
2022/11/27 06:43:29;;;;;;;30.23;19.38;;;0.50;56.40;;;;;;7392520;19;20354;-71
2022/11/27 06:45:59;;;;;;;33.00;19.83;;;0.50;56.40;;;;;;7394724;19;20015;-71
2022/11/27 06:48:32;;;;;;;33.17;19.75;;;0.50;56.30;;;;;;7394654;19;20010;-73
2022/11/27 06:51:03;;;;;;;28.73;19.00;;;0.50;56.30;;;;;;7394410;19;20025;-71
2022/11/27 06:53:34;;;;;;;27.83;18.55;;;0.50;56.30;;;;;;7392620;19;20489;-71
2022/11/27 06:56:04;;;;;;;31.67;19.88;;;0.60;56.50;;;;;;7394643;19;20015;-72
2022/11/27 06:58:34;;;;;;;31.63;20.05;;;0.50;56.30;;;;;;7393392;19;20715;-73
2022/11/27 07:01:07;;;;;;;28.40;17.85;;;0.50;56.40;;;;;;7394475;19;20015;-71
2022/11/27 07:03:40;;;;;;;30.60;19.30;;;0.60;56.40;;;;;;7394820;19;20021;-72
2022/11/27 07:06:14;;;;;;;30.17;18.33;;;0.60;56.50;;;;;;7393765;19;20014;-71
2022/11/27 07:08:44;;;;;;;32.28;19.73;;;0.60;56.40;;;;;;7392855;19;20014;-72
2022/11/27 07:11:17;;;;;;;26.40;18.95;;;0.70;56.60;;;;;;7394292;19;20299;-71
2022/11/27 07:13:47;;;;;;;32.03;21.45;;;0.70;56.50;;;;;;7392227;19;20422;-72
2022/11/27 07:16:18;;;;;;;30.52;20.98;;;0.70;56.30;;;;;;7393995;19;20020;-73
2022/11/27 07:18:52;;;;;;;30.42;21.48;;;0.60;56.20;;;;;;7392440;19;20014;-72
2022/11/27 07:21:22;;;;;;;30.35;20.60;;;0.60;56.10;;;;;;7394149;19;20038;-72
2022/11/27 07:23:52;;;;;;;29.02;19.83;;;0.70;56.20;;;;;;7394202;19;20477;-72
2022/11/27 07:26:24;;;;;;;27.20;18.35;;;0.80;56.40;;;;;;7393265;19;20038;-71
2022/11/27 07:28:55;;;;;;;26.17;18.10;;;0.80;56.30;;;;;;7391895;19;20014;-71
2022/11/27 07:31:26;;;;;;;28.98;19.67;;;0.90;56.30;;;;;;7393661;19;20465;-72
2022/11/27 07:34:00;;;;;;;27.17;18.55;;;0.90;56.30;;;;;;7391682;19;20014;-71
2022/11/27 07:36:31;;;;;;;31.67;19.83;;;1.00;55.60;;;;;;7393089;19;20017;-72
2022/11/27 07:39:01;;;;;;;27.73;19.10;;;1.10;55.60;;;;;;7391352;19;20131;-72
2022/11/27 07:41:31;;;;;;;25.38;17.90;;;1.10;55.00;;;;;;7392576;19;20010;-72
2022/11/27 07:44:03;;;;;;;24.67;17.40;;;1.20;54.40;;;;;;7392834;19;20010;-72
2022/11/27 07:46:33;;;;;;;24.85;17.98;;;1.30;54.30;;;;;;7392687;19;20038;-72
2022/11/27 07:49:05;;;;;;;26.88;16.48;;;1.30;52.90;;;;;;7392865;19;20010;-72
2022/11/27 07:51:35;;;;;;;28.90;17.63;;;1.30;51.20;;;;;;7392571;19;20021;-71
2022/11/27 07:54:05;;;;;;;24.33;16.90;;;1.40;49.50;;;;;;7391193;19;20007;-72
2022/11/27 07:56:35;;;;;;;26.52;17.83;;;1.50;49.40;;;;;;7392197;19;20042;-72
2022/11/27 07:59:05;;;;;;;28.23;18.38;;;1.60;48.70;;;;;;7390766;19;20070;-71
2022/11/27 08:01:35;;;;;;;24.33;17.55;;;1.60;47.50;;;;;;7392357;19;20018;-72
2022/11/27 08:04:07;;;;;;;22.08;15.77;;;1.60;46.50;;;;;;7392034;19;20038;-71
2022/11/27 08:06:37;;;;;;;24.65;17.05;;;1.50;45.20;;;;;;7391745;19;20010;-71
2022/11/27 08:09:07;;;;;;;24.33;16.58;;;1.60;45.50;;;;;;7388813;19;20344;-73
2022/11/27 08:11:37;;;;;;;27.27;17.83;;;1.60;44.80;;;;;;7391710;19;20015;-72
2022/11/27 08:14:09;;;;;;;25.88;17.05;;;1.60;44.50;;;;;;7390836;19;20011;-72
2022/11/27 08:16:39;;;;;;;26.38;17.45;;;1.60;43.60;;;;;;7391597;19;20085;-73
2022/11/27 08:19:12;;;;;;;25.13;15.68;;;1.70;44.10;;;;;;7388730;19;20031;-71
2022/11/27 08:21:41;;;;;;;28.02;16.70;;;1.80;43.70;;;;;;7391773;19;20023;-72
2022/11/27 08:24:11;;;;;;;21.83;15.35;;;1.90;43.70;;;;;;7391894;19;20018;-72
2022/11/27 08:26:41;;;;;;;22.85;14.80;;;2.00;42.10;;;;;;7390924;19;20477;-72
2022/11/27 08:29:13;;;;;;;22.23;14.27;;;2.10;41.10;;;;;;7390029;19;20014;-71
2022/11/27 08:31:43;;;;;;;20.80;14.63;;;2.20;40.00;;;;;;7390867;19;20327;-72
2022/11/27 08:34:15;;;;;;;21.17;14.05;;;2.20;38.10;;;;;;7388266;19;20359;-72
2022/11/27 08:36:45;;;;;;;22.55;14.32;;;2.20;37.60;;;;;;7391037;19;20042;-71
2022/11/27 08:39:16;;;;;;;18.00;13.88;;;2.30;37.70;;;;;;7389932;19;20019;-72
2022/11/27 08:41:46;;;;;;;19.27;13.50;;;2.40;35.90;;;;;;7391107;19;20014;-72
2022/11/27 08:44:16;;;;;;;19.60;13.68;;;2.40;34.30;;;;;;7391351;19;20086;-71
2022/11/27 08:46:46;;;;;;;21.48;13.68;;;2.40;35.30;;;;;;7390895;19;20017;-71
2022/11/27 08:49:18;;;;;;;21.67;14.77;;;2.50;34.10;;;;;;7391391;19;20086;-70
2022/11/27 08:51:48;;;;;;;20.08;13.70;;;2.70;34.60;;;;;;7389125;19;20366;-72
2022/11/27 08:54:18;;;;;;;17.50;13.20;;;2.80;33.70;;;;;;7388977;19;20010;-73
2022/11/27 08:56:48;;;;;;;16.08;12.43;;;3.00;32.20;;;;;;7390243;19;20078;-72
2022/11/27 08:59:17;;;;;;;18.92;13.15;;;3.10;31.80;;;;;;7388893;19;20439;-72
2022/11/27 09:01:47;;;;;;;18.45;12.60;;;3.40;29.90;;;;;;7390185;19;20028;-72
2022/11/27 09:04:20;;;;;;;15.48;12.02;;;3.40;28.20;;;;;;7388335;19;20017;-71
2022/11/27 09:06:50;;;;;;;16.02;11.10;;;3.70;27.00;;;;;;7389993;19;20094;-71
2022/11/27 09:09:28;;;;;;;16.92;11.10;;;3.80;25.60;;;;;;7387802;19;20021;-72
2022/11/27 09:11:58;;;;;;;17.20;10.18;;;4.00;25.10;;;;;;7389570;19;20021;-72
2022/11/27 09:14:27;;;;;;;12.48;9.88;;;3.90;22.70;;;;;;7387290;19;20513;-72
2022/11/27 09:16:57;;;;;;;14.43;9.45;;;3.90;22.10;;;;;;7389672;19;20011;-72
2022/11/27 09:19:30;;;;;;;14.95;9.30;;;3.90;22.50;;;;;;7387601;19;20011;-74
2022/11/27 09:21:59;;;;;;;12.00;8.35;;;3.90;22.50;;;;;;7390040;19;20007;-72
2022/11/27 09:24:29;;;;;;;12.75;8.15;;;3.90;21.80;;;;;;7389263;19;20474;-73
2022/11/27 09:26:59;;;;;;;14.07;7.45;;;3.90;19.80;;;;;;7389457;19;20017;-73
2022/11/27 09:29:29;;;;;;;12.32;7.40;;;4.00;19.00;;;;;;7387563;19;20015;-71
2022/11/27 09:31:59;;;;;;;13.55;7.82;;;4.00;18.90;;;;;;7389373;19;20478;-71
2022/11/27 09:34:32;;;;;;;13.52;7.60;;;4.00;18.90;;;;;;7388407;19;20011;-73
2022/11/27 09:37:07;;;;;;;9.65;7.30;;;4.10;19.10;;;;;;7389085;19;20034;-73
2022/11/27 09:39:37;;;;;;;14.60;7.80;;;4.00;19.30;;;;;;7387134;19;20099;-71
2022/11/27 09:42:09;;;;;;;12.02;7.25;;;4.00;20.50;;;;;;7389453;19;20034;-72
2022/11/27 09:44:45;;;;;;;10.15;6.75;;;4.10;20.10;;;;;;7388868;19;20025;-72
2022/11/27 09:47:21;;;;;;;13.38;7.47;;;4.00;20.00;;;;;;7389298;19;20031;-74
2022/11/27 09:49:59;;;;;;;11.30;8.10;;;4.10;19.90;;;;;;7391457;19;20015;-73
2022/11/27 09:52:34;;;;;;;11.82;7.45;;;4.30;19.70;;;;;;7388807;19;20070;-72
2022/11/27 09:55:12;;;;;;;10.55;7.05;;;4.50;18.50;;;;;;7385796;19;20354;-72
2022/11/27 09:57:44;;;;;;;8.05;6.47;;;4.50;17.20;;;;;;7387104;19;20023;-74
2022/11/27 10:00:17;;;;;;;8.88;6.93;;;4.30;14.50;;;;;;7386324;19;20346;-73
2022/11/27 10:02:47;;;;;;;9.10;6.88;;;4.30;15.80;;;;;;7390234;19;20010;-72
2022/11/27 10:05:24;;;;;;;9.25;7.15;;;4.30;15.00;;;;;;7395877;19;20022;-73
2022/11/27 10:08:14;;;;;;;11.85;8.23;;;4.30;15.30;;;;;;7396415;19;20021;-72
2022/11/27 10:10:53;;;;;;;15.15;10.40;;;4.30;16.40;;;;;;7394102;19;20017;-72
2022/11/27 10:13:40;;;;;;;16.38;11.20;;;4.20;17.40;;;;;;7395538;19;20093;-72
2022/11/27 10:16:18;;;;;;;13.60;11.00;;;4.20;17.80;;;;;;7395545;19;20010;-73
2022/11/27 10:18:53;;;;;;;13.48;8.90;;;4.20;18.10;;;;;;7394396;19;20014;-73
2022/11/27 10:21:29;;;;;;;;;;;4.20;17.70;;;;;;7396392;19;20015;-72
2022/11/27 10:24:07;;;;;;;13.45;8.38;;;4.20;17.90;;;;;;7395066;19;19938;-72
2022/11/27 10:26:43;;;;;;;12.35;7.43;;;4.40;17.60;;;;;;7395677;19;20400;-72
2022/11/27 10:29:28;;;;;;;14.98;8.13;;;4.50;14.30;;;;;;7393224;19;20014;-73
2022/11/27 10:32:02;;;;;;;8.98;7.30;;;4.60;14.10;;;;;;7395322;19;20376;-72
2022/11/27 10:34:39;;;;;;;12.27;6.75;;;4.80;13.60;;;;;;7394110;19;20011;-73
2022/11/27 10:37:19;;;;;;;10.52;7.60;;;4.90;12.50;;;;;;7395104;19;20011;-72
2022/11/27 10:39:54;;;;;;;11.75;7.20;;;5.10;10.40;;;;;;7392164;19;20406;-73
2022/11/27 10:42:29;;;;;;;10.75;7.40;;;5.20;9.00;;;;;;7395258;19;20014;-72
2022/11/27 10:45:03;;;;;;;10.10;7.18;;;5.30;7.70;;;;;;7394374;19;20014;-72
2022/11/27 10:47:35;;;;;;;8.82;7.00;;;5.50;5.60;;;;;;7394798;19;20014;-72
2022/11/27 10:50:04;;;;;;;9.93;6.72;;;5.60;5.70;;;;;;7395647;19;20028;-72
2022/11/27 10:52:37;;;;;;;12.40;6.85;;;5.80;4.20;;;;;;7394607;19;20102;-72
2022/11/27 10:55:19;;;;;;;10.85;6.75;;;5.80;2.10;;;;;;7393178;19;20014;-72
2022/11/27 10:58:04;;;;;;;9.70;6.53;;;5.80;1.90;;;;;;7394063;19;20021;-72
2022/11/27 11:00:34;;;;;;;8.38;6.30;;;5.80;2.20;;;;;;7393143;19;20038;-72
2022/11/27 11:03:06;;;;;;;11.65;6.28;;;5.80;1.40;;;;;;7394064;19;20018;-72
2022/11/27 11:05:37;;;;;;;9.63;6.20;;;5.90;1.90;;;;;;7392477;19;20019;-72
2022/11/27 11:08:30;;;;;;;11.52;6.35;;;5.90;1.00;;;;;;7392818;19;20030;-73
2022/11/27 11:11:02;;;;;;;9.23;5.90;;;6.10;1.00;;;;;;7394208;19;20024;-71
2022/11/27 11:13:33;;;;;;;7.90;6.40;;;6.20;1.00;;;;;;7392151;19;20030;-72
2022/11/27 11:16:08;;;;;;;9.48;6.40;;;6.20;1.00;;;;;;7392080;19;20371;-72
2022/11/27 11:18:45;;;;;;;11.23;6.13;;;6.10;1.20;;;;;;7390665;19;20010;-72
2022/11/27 11:21:18;;;;;;;8.88;6.03;;;6.30;1.00;;;;;;7393438;19;20017;-72
2022/11/27 11:23:57;;;;;;;8.63;6.20;;;6.30;1.00;;;;;;7393673;19;20022;-72
2022/11/27 11:26:30;;;;;;;10.75;5.93;;;6.40;1.50;;;;;;7393840;19;20014;-72
2022/11/27 11:29:03;;;;;;;12.02;6.13;;;6.30;1.00;;;;;;7391398;19;20031;-72
2022/11/27 11:31:38;;;;;;;11.13;6.80;;;6.40;1.00;;;;;;7393044;19;20018;-72
2022/11/27 11:34:19;;;;;;;11.30;6.78;;;6.40;1.00;;;;;;7392681;19;20273;-72
2022/11/27 11:37:01;;;;;;;11.52;6.93;;;6.50;1.00;;;;;;7389906;19;20038;-72
2022/11/27 11:39:35;;;;;;;11.52;7.15;;;6.60;1.00;;;;;;7390364;19;20038;-73
2022/11/27 11:42:12;;;;;;;8.88;6.28;;;6.80;1.00;;;;;;7393131;19;20074;-73
2022/11/27 11:44:42;;;;;;;9.40;5.88;;;6.80;1.00;;;;;;7392433;19;20031;-72
2022/11/27 11:47:20;;;;;;;6.43;4.80;;;6.80;1.00;;;;;;7392695;19;20049;-73
2022/11/27 11:49:51;;;;;;;8.23;5.30;;;6.90;1.00;;;;;;7393857;19;20505;-72
2022/11/27 11:52:39;;;;;;;7.68;5.60;;;7.10;1.00;;;;;;7391921;19;20017;-73
2022/11/27 11:55:19;;;;;;;7.60;5.18;;;6.90;1.00;;;;;;7391387;19;20014;-73
2022/11/27 11:58:21;;;;;;;9.35;6.05;;;7.00;1.00;;;;;;7391612;19;20015;-73
2022/11/27 12:01:02;;;;;;;7.35;5.38;;;7.10;1.00;;;;;;7389369;19;20018;-73
2022/11/27 12:04:33;;;;;;;8.68;5.40;;;7.00;1.00;;;;;;7390231;19;20019;-72
2022/11/27 12:07:17;;;;;;;9.55;5.60;;;7.00;1.00;;;;;;7391058;19;20081;-72
2022/11/27 12:09:56;;;;;;;12.15;6.90;;;7.10;1.00;;;;;;7389258;19;20043;-73
2022/11/27 12:12:44;;;;;;;9.77;6.40;;;7.10;1.00;;;;;;7391586;19;20078;-72
2022/11/27 12:15:24;;;;;;;12.77;6.65;;;7.30;1.00;;;;;;7391063;19;20006;-74
2022/11/27 12:18:00;;;;;;;9.85;6.45;;;7.50;1.00;;;;;;7391282;19;20019;-73
2022/11/27 12:20:42;;;;;;;9.90;5.88;;;7.60;1.00;;;;;;7390405;19;20070;-73
2022/11/27 12:23:42;;;;;;;7.72;5.78;;;7.70;1.00;;;;;;7391308;19;20351;-72
2022/11/27 12:26:21;;;;;;;8.13;5.85;;;7.70;1.00;;;;;;7389336;19;20011;-73
2022/11/27 12:29:22;;;;;;;6.88;5.40;;;7.80;1.00;;;;;;7389890;19;20011;-71
2022/11/27 12:32:10;;;;;;;8.20;5.40;;;8.00;1.00;;;;;;7388566;19;20458;-73
2022/11/27 12:34:53;;;;;;;11.60;5.88;;;8.10;1.00;;;;;;7390569;19;20074;-73
2022/11/27 12:37:32;;;;;;;8.13;5.63;;;8.00;1.00;;;;;;7388727;19;20013;-73
2022/11/27 12:40:18;;;;;;;8.50;5.10;;;8.00;1.00;;;;;;7388624;19;20031;-72
2022/11/27 12:42:55;;;;;;;8.07;5.60;;;8.10;1.00;;;;;;7389317;19;20025;-73
2022/11/27 12:45:33;;;;;;;7.47;5.05;;;8.10;1.00;;;;;;7390619;19;20027;-73
2022/11/27 12:48:13;;;;;;;8.80;5.68;;;8.00;1.00;;;;;;7390222;19;20011;-72
2022/11/27 12:50:45;;;;;;;8.88;5.30;;;8.00;1.00;;;;;;7389938;19;20019;-73
2022/11/27 12:53:20;;;;;;;7.10;5.03;;;7.90;1.00;;;;;;7390401;19;20426;-73
2022/11/27 12:56:07;;;;;;;8.60;5.43;;;7.80;1.00;;;;;;7389648;19;20011;-72
2022/11/27 12:58:40;;;;;;;10.27;6.65;;;7.70;1.00;;;;;;7388603;19;20710;-74
2022/11/27 13:01:18;;;;;;;9.45;5.47;;;7.70;1.00;;;;;;7389631;19;20025;-73
2022/11/27 13:04:07;;;;;;;7.43;5.45;;;7.70;1.00;;;;;;7389842;19;20013;-73
2022/11/27 13:06:49;;;;;;;9.50;6.22;;;7.60;1.00;;;;;;7389988;19;20035;-72
2022/11/27 13:09:27;;;;;;;8.60;6.05;;;7.70;1.00;;;;;;7389600;19;20018;-72
2022/11/27 13:11:58;;;;;;;10.88;6.35;;;7.70;1.00;;;;;;7389168;19;20010;-73
2022/11/27 13:14:29;;;;;;;8.85;6.03;;;7.80;1.00;;;;;;7387971;19;20026;-73
2022/11/27 13:17:05;;;;;;;10.25;6.55;;;7.90;1.00;;;;;;7387250;19;20014;-72